sensor_id;sensor_type;location;lat;lon;timestamp;P1;durP1;ratioP1;P2;durP2;ratioP2
67675;SDS011;54456;48.436;10.028;2023-02-08T00:01:16;4.50;;;2.00;;
67675;SDS011;54456;48.436;10.028;2023-02-08T00:02:46;1.60;;;1.17;;
67675;SDS011;54456;48.436;10.028;2023-02-08T00:04:17;3.80;;;1.83;;
67675;SDS011;54456;48.436;10.028;2023-02-08T00:05:47;2.17;;;1.48;;
67675;SDS011;54456;48.436;10.028;2023-02-08T00:07:17;6.10;;;2.70;;
67675;SDS011;54456;48.436;10.028;2023-02-08T00:08:48;6.03;;;2.47;;
67675;SDS011;54456;48.436;10.028;2023-02-08T00:10:18;7.83;;;2.73;;
67675;SDS011;54456;48.436;10.028;2023-02-08T00:11:48;6.77;;;2.03;;
67675;SDS011;54456;48.436;10.028;2023-02-08T00:13:18;2.65;;;1.63;;
67675;SDS011;54456;48.436;10.028;2023-02-08T00:14:49;3.63;;;1.83;;
67675;SDS011;54456;48.436;10.028;2023-02-08T00:16:19;2.90;;;1.60;;
67675;SDS011;54456;48.436;10.028;2023-02-08T00:17:49;8.47;;;2.63;;
67675;SDS011;54456;48.436;10.028;2023-02-08T00:19:19;7.50;;;2.67;;
67675;SDS011;54456;48.436;10.028;2023-02-08T00:20:50;2.97;;;1.63;;
67675;SDS011;54456;48.436;10.028;2023-02-08T00:22:20;7.30;;;2.85;;
67675;SDS011;54456;48.436;10.028;2023-02-08T00:23:51;3.60;;;1.80;;
67675;SDS011;54456;48.436;10.028;2023-02-08T00:25:21;6.57;;;2.33;;
67675;SDS011;54456;48.436;10.028;2023-02-08T00:26:51;9.20;;;2.50;;
67675;SDS011;54456;48.436;10.028;2023-02-08T00:28:22;7.55;;;2.92;;
67675;SDS011;54456;48.436;10.028;2023-02-08T00:29:53;5.82;;;2.45;;
67675;SDS011;54456;48.436;10.028;2023-02-08T04:16:38;19.35;;;6.78;;
67675;SDS011;54456;48.436;10.028;2023-02-08T04:18:09;22.60;;;8.65;;
67675;SDS011;54456;48.436;10.028;2023-02-08T04:19:39;20.23;;;6.87;;
67675;SDS011;54456;48.436;10.028;2023-02-08T04:21:09;17.20;;;7.10;;
67675;SDS011;54456;48.436;10.028;2023-02-08T04:22:39;32.77;;;12.07;;
67675;SDS011;54456;48.436;10.028;2023-02-08T04:24:10;25.97;;;10.27;;
67675;SDS011;54456;48.436;10.028;2023-02-08T04:25:40;27.83;;;11.77;;
67675;SDS011;54456;48.436;10.028;2023-02-08T04:27:10;27.13;;;9.10;;
67675;SDS011;54456;48.436;10.028;2023-02-08T04:28:40;19.37;;;7.43;;
67675;SDS011;54456;48.436;10.028;2023-02-08T04:30:11;21.27;;;8.33;;
67675;SDS011;54456;48.436;10.028;2023-02-08T04:31:41;22.90;;;9.13;;
67675;SDS011;54456;48.436;10.028;2023-02-08T04:33:11;21.73;;;8.37;;
67675;SDS011;54456;48.436;10.028;2023-02-08T04:34:43;18.85;;;6.78;;
67675;SDS011;54456;48.436;10.028;2023-02-08T04:36:13;19.37;;;7.27;;
67675;SDS011;54456;48.436;10.028;2023-02-08T04:37:44;20.70;;;7.50;;
67675;SDS011;54456;48.436;10.028;2023-02-08T04:39:14;23.40;;;9.00;;
67675;SDS011;54456;48.436;10.028;2023-02-08T04:40:44;23.73;;;9.07;;
67675;SDS011;54456;48.436;10.028;2023-02-08T04:42:15;22.03;;;9.63;;
67675;SDS011;54456;48.436;10.028;2023-02-08T04:43:45;18.48;;;7.68;;
67675;SDS011;54456;48.436;10.028;2023-02-08T04:45:15;31.57;;;11.27;;
67675;SDS011;54456;48.436;10.028;2023-02-08T04:46:45;22.00;;;8.87;;
67675;SDS011;54456;48.436;10.028;2023-02-08T04:48:16;24.30;;;8.60;;
67675;SDS011;54456;48.436;10.028;2023-02-08T04:49:46;21.45;;;8.65;;
67675;SDS011;54456;48.436;10.028;2023-02-08T04:51:16;25.57;;;8.57;;
67675;SDS011;54456;48.436;10.028;2023-02-08T04:52:47;20.07;;;6.43;;
67675;SDS011;54456;48.436;10.028;2023-02-08T04:54:17;19.45;;;7.45;;
67675;SDS011;54456;48.436;10.028;2023-02-08T04:55:47;24.37;;;8.43;;
67675;SDS011;54456;48.436;10.028;2023-02-08T04:57:17;26.37;;;10.10;;
67675;SDS011;54456;48.436;10.028;2023-02-08T04:58:48;27.67;;;9.50;;
67675;SDS011;54456;48.436;10.028;2023-02-08T05:00:18;20.20;;;7.23;;
67675;SDS011;54456;48.436;10.028;2023-02-08T05:01:48;21.13;;;7.33;;
67675;SDS011;54456;48.436;10.028;2023-02-08T05:03:18;23.80;;;9.00;;
67675;SDS011;54456;48.436;10.028;2023-02-08T05:04:49;27.50;;;9.87;;
67675;SDS011;54456;48.436;10.028;2023-02-08T05:06:19;20.40;;;8.37;;
67675;SDS011;54456;48.436;10.028;2023-02-08T05:07:49;27.40;;;9.17;;
67675;SDS011;54456;48.436;10.028;2023-02-08T05:09:20;20.77;;;8.17;;
67675;SDS011;54456;48.436;10.028;2023-02-08T05:10:50;23.53;;;8.63;;
67675;SDS011;54456;48.436;10.028;2023-02-08T05:12:20;22.60;;;6.70;;
67675;SDS011;54456;48.436;10.028;2023-02-08T05:13:50;25.43;;;9.23;;
67675;SDS011;54456;48.436;10.028;2023-02-08T05:15:20;25.50;;;9.43;;
67675;SDS011;54456;48.436;10.028;2023-02-08T05:16:51;19.83;;;7.80;;
67675;SDS011;54456;48.436;10.028;2023-02-08T05:18:21;18.07;;;5.73;;
67675;SDS011;54456;48.436;10.028;2023-02-08T05:19:51;19.60;;;7.53;;
67675;SDS011;54456;48.436;10.028;2023-02-08T05:21:21;23.30;;;9.33;;
67675;SDS011;54456;48.436;10.028;2023-02-08T05:22:52;25.10;;;10.18;;
67675;SDS011;54456;48.436;10.028;2023-02-08T05:24:23;19.73;;;7.80;;
67675;SDS011;54456;48.436;10.028;2023-02-08T05:25:53;19.20;;;7.60;;
67675;SDS011;54456;48.436;10.028;2023-02-08T05:27:23;19.37;;;7.60;;
67675;SDS011;54456;48.436;10.028;2023-02-08T05:28:54;25.27;;;9.43;;
67675;SDS011;54456;48.436;10.028;2023-02-08T05:30:24;19.33;;;7.37;;
67675;SDS011;54456;48.436;10.028;2023-02-08T05:31:54;18.37;;;7.53;;
67675;SDS011;54456;48.436;10.028;2023-02-08T05:33:24;26.77;;;10.50;;
67675;SDS011;54456;48.436;10.028;2023-02-08T05:34:54;22.37;;;9.57;;
67675;SDS011;54456;48.436;10.028;2023-02-08T05:36:25;29.93;;;9.10;;
67675;SDS011;54456;48.436;10.028;2023-02-08T05:37:55;24.85;;;9.02;;
67675;SDS011;54456;48.436;10.028;2023-02-08T05:39:25;16.83;;;5.93;;
67675;SDS011;54456;48.436;10.028;2023-02-08T05:40:56;29.60;;;9.83;;
67675;SDS011;54456;48.436;10.028;2023-02-08T05:42:26;27.58;;;11.02;;
67675;SDS011;54456;48.436;10.028;2023-02-08T05:43:56;34.27;;;11.97;;
67675;SDS011;54456;48.436;10.028;2023-02-08T05:45:27;19.63;;;7.30;;
67675;SDS011;54456;48.436;10.028;2023-02-08T05:46:57;23.88;;;8.40;;
67675;SDS011;54456;48.436;10.028;2023-02-08T05:48:28;18.93;;;7.23;;
67675;SDS011;54456;48.436;10.028;2023-02-08T05:49:58;28.67;;;11.27;;
67675;SDS011;54456;48.436;10.028;2023-02-08T05:51:29;28.47;;;10.57;;
67675;SDS011;54456;48.436;10.028;2023-02-08T05:52:59;26.47;;;11.33;;
67675;SDS011;54456;48.436;10.028;2023-02-08T05:54:29;24.30;;;9.53;;
67675;SDS011;54456;48.436;10.028;2023-02-08T05:55:59;30.87;;;10.90;;
67675;SDS011;54456;48.436;10.028;2023-02-08T05:57:30;29.00;;;11.23;;
67675;SDS011;54456;48.436;10.028;2023-02-08T05:59:00;18.85;;;8.00;;
67675;SDS011;54456;48.436;10.028;2023-02-08T06:00:31;22.92;;;8.60;;
67675;SDS011;54456;48.436;10.028;2023-02-08T06:02:01;17.17;;;6.73;;
67675;SDS011;54456;48.436;10.028;2023-02-08T06:03:31;27.60;;;9.80;;
67675;SDS011;54456;48.436;10.028;2023-02-08T06:05:02;27.77;;;10.53;;
67675;SDS011;54456;48.436;10.028;2023-02-08T06:06:32;21.67;;;8.63;;
67675;SDS011;54456;48.436;10.028;2023-02-08T06:08:02;16.83;;;7.07;;
67675;SDS011;54456;48.436;10.028;2023-02-08T06:09:32;32.10;;;11.77;;
67675;SDS011;54456;48.436;10.028;2023-02-08T06:11:03;32.37;;;12.13;;
67675;SDS011;54456;48.436;10.028;2023-02-08T06:12:33;22.93;;;8.73;;
67675;SDS011;54456;48.436;10.028;2023-02-08T06:14:03;30.57;;;11.30;;
67675;SDS011;54456;48.436;10.028;2023-02-08T06:15:33;29.23;;;11.43;;
67675;SDS011;54456;48.436;10.028;2023-02-08T06:17:04;26.50;;;9.97;;
67675;SDS011;54456;48.436;10.028;2023-02-08T06:18:34;28.83;;;9.33;;
67675;SDS011;54456;48.436;10.028;2023-02-08T06:20:04;32.03;;;11.60;;
67675;SDS011;54456;48.436;10.028;2023-02-08T06:21:34;26.55;;;10.27;;
67675;SDS011;54456;48.436;10.028;2023-02-08T06:23:05;31.43;;;12.07;;
67675;SDS011;54456;48.436;10.028;2023-02-08T06:24:35;26.23;;;11.00;;
67675;SDS011;54456;48.436;10.028;2023-02-08T06:26:05;11.87;;;5.33;;
67675;SDS011;54456;48.436;10.028;2023-02-08T06:27:35;24.37;;;10.10;;
67675;SDS011;54456;48.436;10.028;2023-02-08T06:29:06;33.37;;;12.17;;
67675;SDS011;54456;48.436;10.028;2023-02-08T06:30:36;21.30;;;8.30;;
67675;SDS011;54456;48.436;10.028;2023-02-08T06:32:06;27.50;;;11.23;;
67675;SDS011;54456;48.436;10.028;2023-02-08T06:33:37;23.30;;;10.13;;
67675;SDS011;54456;48.436;10.028;2023-02-08T06:35:07;35.27;;;12.80;;
67675;SDS011;54456;48.436;10.028;2023-02-08T06:36:37;33.73;;;11.57;;
67675;SDS011;54456;48.436;10.028;2023-02-08T06:38:07;26.17;;;10.43;;
67675;SDS011;54456;48.436;10.028;2023-02-08T06:39:38;27.30;;;9.90;;
67675;SDS011;54456;48.436;10.028;2023-02-08T06:41:08;25.00;;;10.60;;
67675;SDS011;54456;48.436;10.028;2023-02-08T06:42:38;27.30;;;11.13;;
67675;SDS011;54456;48.436;10.028;2023-02-08T06:44:08;29.30;;;9.97;;
67675;SDS011;54456;48.436;10.028;2023-02-08T06:45:39;27.50;;;10.13;;
67675;SDS011;54456;48.436;10.028;2023-02-08T06:47:09;33.43;;;13.33;;
67675;SDS011;54456;48.436;10.028;2023-02-08T06:48:39;19.30;;;7.70;;
67675;SDS011;54456;48.436;10.028;2023-02-08T06:50:10;31.73;;;11.70;;
67675;SDS011;54456;48.436;10.028;2023-02-08T06:51:40;31.80;;;10.07;;
67675;SDS011;54456;48.436;10.028;2023-02-08T06:53:10;32.50;;;11.93;;
67675;SDS011;54456;48.436;10.028;2023-02-08T06:54:41;21.10;;;8.67;;
67675;SDS011;54456;48.436;10.028;2023-02-08T06:56:12;29.55;;;11.52;;
67675;SDS011;54456;48.436;10.028;2023-02-08T06:57:42;34.30;;;12.97;;
67675;SDS011;54456;48.436;10.028;2023-02-08T06:59:12;19.27;;;8.17;;
67675;SDS011;54456;48.436;10.028;2023-02-08T07:00:42;30.77;;;12.60;;
67675;SDS011;54456;48.436;10.028;2023-02-08T07:02:15;34.75;;;13.13;;
67675;SDS011;54456;48.436;10.028;2023-02-08T07:03:46;29.73;;;10.55;;
67675;SDS011;54456;48.436;10.028;2023-02-08T07:05:16;30.43;;;12.37;;
67675;SDS011;54456;48.436;10.028;2023-02-08T07:06:47;40.73;;;15.40;;
67675;SDS011;54456;48.436;10.028;2023-02-08T07:08:18;33.13;;;13.98;;
67675;SDS011;54456;48.436;10.028;2023-02-08T07:09:48;34.60;;;12.50;;
67675;SDS011;54456;48.436;10.028;2023-02-08T07:11:19;34.63;;;12.43;;
67675;SDS011;54456;48.436;10.028;2023-02-08T07:12:49;25.20;;;10.77;;
67675;SDS011;54456;48.436;10.028;2023-02-08T07:14:19;41.73;;;16.63;;
67675;SDS011;54456;48.436;10.028;2023-02-08T07:15:50;34.07;;;12.90;;
67675;SDS011;54456;48.436;10.028;2023-02-08T07:17:20;35.07;;;12.97;;
67675;SDS011;54456;48.436;10.028;2023-02-08T07:18:50;27.60;;;9.97;;
67675;SDS011;54456;48.436;10.028;2023-02-08T07:20:20;34.30;;;11.80;;
67675;SDS011;54456;48.436;10.028;2023-02-08T07:21:51;30.87;;;12.93;;
67675;SDS011;54456;48.436;10.028;2023-02-08T07:23:21;30.83;;;12.27;;
67675;SDS011;54456;48.436;10.028;2023-02-08T07:24:51;30.57;;;13.13;;
67675;SDS011;54456;48.436;10.028;2023-02-08T07:26:21;39.47;;;16.70;;
67675;SDS011;54456;48.436;10.028;2023-02-08T07:27:52;34.37;;;13.03;;
67675;SDS011;54456;48.436;10.028;2023-02-08T07:29:22;29.07;;;12.70;;
67675;SDS011;54456;48.436;10.028;2023-02-08T07:30:53;43.15;;;16.80;;
67675;SDS011;54456;48.436;10.028;2023-02-08T07:32:23;40.20;;;14.80;;
67675;SDS011;54456;48.436;10.028;2023-02-08T07:33:53;34.27;;;14.70;;
67675;SDS011;54456;48.436;10.028;2023-02-08T07:35:26;33.50;;;12.53;;
67675;SDS011;54456;48.436;10.028;2023-02-08T07:36:56;31.98;;;13.68;;
67675;SDS011;54456;48.436;10.028;2023-02-08T07:38:27;35.70;;;11.40;;
67675;SDS011;54456;48.436;10.028;2023-02-08T07:39:57;32.43;;;13.87;;
67675;SDS011;54456;48.436;10.028;2023-02-08T07:41:27;33.47;;;13.57;;
67675;SDS011;54456;48.436;10.028;2023-02-08T07:42:57;34.27;;;13.77;;
67675;SDS011;54456;48.436;10.028;2023-02-08T07:44:28;42.20;;;17.07;;
67675;SDS011;54456;48.436;10.028;2023-02-08T07:45:58;26.10;;;11.70;;
67675;SDS011;54456;48.436;10.028;2023-02-08T07:47:33;46.05;;;18.10;;
67675;SDS011;54456;48.436;10.028;2023-02-08T07:49:03;41.43;;;17.47;;
67675;SDS011;54456;48.436;10.028;2023-02-08T07:50:33;38.20;;;16.23;;
67675;SDS011;54456;48.436;10.028;2023-02-08T07:52:04;43.63;;;17.63;;
67675;SDS011;54456;48.436;10.028;2023-02-08T07:53:34;39.23;;;16.27;;
67675;SDS011;54456;48.436;10.028;2023-02-08T07:55:05;39.28;;;16.50;;
67675;SDS011;54456;48.436;10.028;2023-02-08T07:56:35;33.25;;;14.07;;
67675;SDS011;54456;48.436;10.028;2023-02-08T07:58:05;26.47;;;10.57;;
67675;SDS011;54456;48.436;10.028;2023-02-08T07:59:35;39.07;;;16.40;;
67675;SDS011;54456;48.436;10.028;2023-02-08T08:01:06;33.00;;;12.80;;
67675;SDS011;54456;48.436;10.028;2023-02-08T08:02:36;35.67;;;14.23;;
67675;SDS011;54456;48.436;10.028;2023-02-08T08:04:06;39.60;;;15.80;;
67675;SDS011;54456;48.436;10.028;2023-02-08T08:05:38;34.03;;;13.27;;
67675;SDS011;54456;48.436;10.028;2023-02-08T08:07:08;27.00;;;10.88;;
67675;SDS011;54456;48.436;10.028;2023-02-08T08:08:39;35.40;;;14.07;;
67675;SDS011;54456;48.436;10.028;2023-02-08T08:10:09;31.33;;;12.03;;
67675;SDS011;54456;48.436;10.028;2023-02-08T08:11:39;29.60;;;12.00;;
67675;SDS011;54456;48.436;10.028;2023-02-08T08:13:09;31.37;;;12.77;;
67675;SDS011;54456;48.436;10.028;2023-02-08T08:14:39;30.40;;;12.20;;
67675;SDS011;54456;48.436;10.028;2023-02-08T08:16:10;33.40;;;12.23;;
67675;SDS011;54456;48.436;10.028;2023-02-08T08:17:40;37.40;;;14.17;;
67675;SDS011;54456;48.436;10.028;2023-02-08T08:19:11;32.47;;;12.90;;
67675;SDS011;54456;48.436;10.028;2023-02-08T08:20:41;38.00;;;15.20;;
67675;SDS011;54456;48.436;10.028;2023-02-08T08:22:11;39.93;;;16.03;;
67675;SDS011;54456;48.436;10.028;2023-02-08T08:23:41;25.13;;;10.63;;
67675;SDS011;54456;48.436;10.028;2023-02-08T08:25:12;26.33;;;10.30;;
67675;SDS011;54456;48.436;10.028;2023-02-08T08:26:42;32.10;;;12.10;;
67675;SDS011;54456;48.436;10.028;2023-02-08T08:28:12;31.23;;;12.23;;
67675;SDS011;54456;48.436;10.028;2023-02-08T08:29:42;34.17;;;13.13;;
67675;SDS011;54456;48.436;10.028;2023-02-08T08:31:14;29.87;;;11.07;;
67675;SDS011;54456;48.436;10.028;2023-02-08T08:32:44;25.55;;;10.60;;
67675;SDS011;54456;48.436;10.028;2023-02-08T08:34:14;31.37;;;10.33;;
67675;SDS011;54456;48.436;10.028;2023-02-08T08:35:45;29.23;;;12.43;;
67675;SDS011;54456;48.436;10.028;2023-02-08T08:37:16;30.20;;;12.63;;
67675;SDS011;54456;48.436;10.028;2023-02-08T08:38:46;34.67;;;13.37;;
67675;SDS011;54456;48.436;10.028;2023-02-08T08:40:16;21.70;;;8.57;;
67675;SDS011;54456;48.436;10.028;2023-02-08T08:41:46;39.83;;;15.73;;
67675;SDS011;54456;48.436;10.028;2023-02-08T08:43:17;21.47;;;7.83;;
67675;SDS011;54456;48.436;10.028;2023-02-08T08:44:50;22.67;;;9.23;;
67675;SDS011;54456;48.436;10.028;2023-02-08T08:46:20;21.05;;;9.30;;
67675;SDS011;54456;48.436;10.028;2023-02-08T08:47:51;31.33;;;12.30;;
67675;SDS011;54456;48.436;10.028;2023-02-08T08:49:22;35.83;;;13.65;;
67675;SDS011;54456;48.436;10.028;2023-02-08T08:50:52;34.33;;;14.30;;
67675;SDS011;54456;48.436;10.028;2023-02-08T08:52:23;23.20;;;8.73;;
67675;SDS011;54456;48.436;10.028;2023-02-08T08:53:53;29.87;;;12.23;;
67675;SDS011;54456;48.436;10.028;2023-02-08T08:55:23;17.67;;;7.43;;
67675;SDS011;54456;48.436;10.028;2023-02-08T08:56:54;29.85;;;9.50;;
67675;SDS011;54456;48.436;10.028;2023-02-08T08:58:25;20.53;;;8.33;;
67675;SDS011;54456;48.436;10.028;2023-02-08T08:59:55;27.07;;;9.47;;
67675;SDS011;54456;48.436;10.028;2023-02-08T09:01:25;34.50;;;13.13;;
67675;SDS011;54456;48.436;10.028;2023-02-08T09:02:55;26.20;;;10.40;;
67675;SDS011;54456;48.436;10.028;2023-02-08T09:04:26;33.73;;;13.43;;
67675;SDS011;54456;48.436;10.028;2023-02-08T09:05:56;32.87;;;14.03;;
67675;SDS011;54456;48.436;10.028;2023-02-08T09:07:26;26.70;;;10.57;;
67675;SDS011;54456;48.436;10.028;2023-02-08T09:08:56;32.33;;;12.60;;
67675;SDS011;54456;48.436;10.028;2023-02-08T09:10:26;25.47;;;9.63;;
67675;SDS011;54456;48.436;10.028;2023-02-08T09:11:57;34.73;;;15.10;;
67675;SDS011;54456;48.436;10.028;2023-02-08T09:13:27;31.73;;;11.57;;
67675;SDS011;54456;48.436;10.028;2023-02-08T09:14:57;34.83;;;14.23;;
67675;SDS011;54456;48.436;10.028;2023-02-08T09:16:28;31.97;;;10.80;;
67675;SDS011;54456;48.436;10.028;2023-02-08T09:17:58;31.90;;;13.35;;
67675;SDS011;54456;48.436;10.028;2023-02-08T09:19:28;23.20;;;9.27;;
67675;SDS011;54456;48.436;10.028;2023-02-08T09:20:58;34.23;;;12.73;;
67675;SDS011;54456;48.436;10.028;2023-02-08T09:22:29;28.20;;;9.87;;
67675;SDS011;54456;48.436;10.028;2023-02-08T09:23:59;31.27;;;10.55;;
67675;SDS011;54456;48.436;10.028;2023-02-08T09:25:30;22.23;;;8.57;;
67675;SDS011;54456;48.436;10.028;2023-02-08T09:27:02;30.73;;;12.63;;
67675;SDS011;54456;48.436;10.028;2023-02-08T09:28:32;29.77;;;13.13;;
67675;SDS011;54456;48.436;10.028;2023-02-08T09:30:03;35.20;;;12.52;;
67675;SDS011;54456;48.436;10.028;2023-02-08T09:31:34;33.10;;;12.82;;
67675;SDS011;54456;48.436;10.028;2023-02-08T09:33:06;36.42;;;13.45;;
67675;SDS011;54456;48.436;10.028;2023-02-08T09:34:36;36.47;;;14.37;;
67675;SDS011;54456;48.436;10.028;2023-02-08T09:36:07;30.97;;;12.53;;
67675;SDS011;54456;48.436;10.028;2023-02-08T09:37:37;29.40;;;11.57;;
67675;SDS011;54456;48.436;10.028;2023-02-08T09:39:18;27.73;;;9.85;;
67675;SDS011;54456;48.436;10.028;2023-02-08T09:42:37;27.13;;;10.68;;
67675;SDS011;54456;48.436;10.028;2023-02-08T09:45:53;29.58;;;13.32;;
67675;SDS011;54456;48.436;10.028;2023-02-08T09:47:33;30.15;;;11.93;;
67675;SDS011;54456;48.436;10.028;2023-02-08T09:49:04;32.90;;;12.70;;
67675;SDS011;54456;48.436;10.028;2023-02-08T09:50:39;28.02;;;12.38;;
67675;SDS011;54456;48.436;10.028;2023-02-08T09:52:12;28.83;;;11.25;;
67675;SDS011;54456;48.436;10.028;2023-02-08T09:53:45;34.45;;;13.50;;
67675;SDS011;54456;48.436;10.028;2023-02-08T09:55:21;34.65;;;13.32;;
67675;SDS011;54456;48.436;10.028;2023-02-08T10:00:01;31.48;;;11.73;;
67675;SDS011;54456;48.436;10.028;2023-02-08T10:01:33;34.42;;;13.07;;
67675;SDS011;54456;48.436;10.028;2023-02-08T10:03:04;29.92;;;11.63;;
67675;SDS011;54456;48.436;10.028;2023-02-08T10:04:51;30.40;;;12.40;;
67675;SDS011;54456;48.436;10.028;2023-02-08T10:06:24;29.88;;;11.57;;
67675;SDS011;54456;48.436;10.028;2023-02-08T10:07:54;33.28;;;14.07;;
67675;SDS011;54456;48.436;10.028;2023-02-08T10:09:25;28.73;;;11.57;;
67675;SDS011;54456;48.436;10.028;2023-02-08T10:11:17;30.88;;;12.27;;
67675;SDS011;54456;48.436;10.028;2023-02-08T10:16:11;38.72;;;14.55;;
67675;SDS011;54456;48.436;10.028;2023-02-08T10:19:20;33.77;;;13.27;;
67675;SDS011;54456;48.436;10.028;2023-02-08T10:21:00;35.35;;;14.40;;
67675;SDS011;54456;48.436;10.028;2023-02-08T10:33:54;28.63;;;11.35;;
67675;SDS011;54456;48.436;10.028;2023-02-08T10:35:31;27.55;;;10.45;;
67675;SDS011;54456;48.436;10.028;2023-02-08T10:37:13;25.63;;;10.70;;
67675;SDS011;54456;48.436;10.028;2023-02-08T10:38:45;32.60;;;13.50;;
67675;SDS011;54456;48.436;10.028;2023-02-08T10:40:33;29.27;;;10.70;;
67675;SDS011;54456;48.436;10.028;2023-02-08T10:42:07;27.23;;;11.25;;
67675;SDS011;54456;48.436;10.028;2023-02-08T10:43:45;28.00;;;11.10;;
67675;SDS011;54456;48.436;10.028;2023-02-08T10:45:25;26.23;;;10.38;;
67675;SDS011;54456;48.436;10.028;2023-02-08T10:52:08;22.73;;;9.05;;
67675;SDS011;54456;48.436;10.028;2023-02-08T10:53:39;25.08;;;9.75;;
67675;SDS011;54456;48.436;10.028;2023-02-08T10:55:13;30.47;;;12.73;;
67675;SDS011;54456;48.436;10.028;2023-02-08T10:58:16;31.90;;;12.57;;
67675;SDS011;54456;48.436;10.028;2023-02-08T10:59:50;32.05;;;12.10;;
67675;SDS011;54456;48.436;10.028;2023-02-08T11:01:22;25.23;;;9.50;;
67675;SDS011;54456;48.436;10.028;2023-02-08T11:02:53;26.60;;;10.90;;
67675;SDS011;54456;48.436;10.028;2023-02-08T11:04:24;27.95;;;10.35;;
67675;SDS011;54456;48.436;10.028;2023-02-08T11:05:55;28.00;;;10.87;;
67675;SDS011;54456;48.436;10.028;2023-02-08T11:07:25;27.52;;;11.50;;
67675;SDS011;54456;48.436;10.028;2023-02-08T11:08:55;29.30;;;12.07;;
67675;SDS011;54456;48.436;10.028;2023-02-08T11:10:27;27.90;;;12.07;;
67675;SDS011;54456;48.436;10.028;2023-02-08T11:11:59;29.67;;;12.03;;
67675;SDS011;54456;48.436;10.028;2023-02-08T11:15:15;36.75;;;13.25;;
67675;SDS011;54456;48.436;10.028;2023-02-08T11:16:53;28.60;;;10.18;;
67675;SDS011;54456;48.436;10.028;2023-02-08T11:19:54;38.73;;;11.90;;
67675;SDS011;54456;48.436;10.028;2023-02-08T11:22:56;32.17;;;12.10;;
67675;SDS011;54456;48.436;10.028;2023-02-08T11:24:31;31.95;;;13.10;;
67675;SDS011;54456;48.436;10.028;2023-02-08T11:26:18;33.22;;;10.80;;
67675;SDS011;54456;48.436;10.028;2023-02-08T11:27:50;29.35;;;10.45;;
67675;SDS011;54456;48.436;10.028;2023-02-08T11:30:59;29.23;;;11.45;;
67675;SDS011;54456;48.436;10.028;2023-02-08T11:32:29;35.03;;;16.10;;
67675;SDS011;54456;48.436;10.028;2023-02-08T11:35:32;26.37;;;8.83;;
67675;SDS011;54456;48.436;10.028;2023-02-08T11:37:03;25.20;;;9.20;;
67675;SDS011;54456;48.436;10.028;2023-02-08T11:38:42;28.15;;;12.38;;
67675;SDS011;54456;48.436;10.028;2023-02-08T11:40:16;19.27;;;7.27;;
67675;SDS011;54456;48.436;10.028;2023-02-08T11:41:48;21.77;;;9.35;;
67675;SDS011;54456;48.436;10.028;2023-02-08T11:43:29;26.80;;;11.25;;
67675;SDS011;54456;48.436;10.028;2023-02-08T11:45:00;23.02;;;9.02;;
67675;SDS011;54456;48.436;10.028;2023-02-08T11:46:31;32.20;;;10.63;;
67675;SDS011;54456;48.436;10.028;2023-02-08T11:48:02;28.70;;;12.00;;
67675;SDS011;54456;48.436;10.028;2023-02-08T11:49:40;24.17;;;9.52;;
67675;SDS011;54456;48.436;10.028;2023-02-08T11:51:12;30.10;;;10.52;;
67675;SDS011;54456;48.436;10.028;2023-02-08T11:52:43;23.05;;;9.23;;
67675;SDS011;54456;48.436;10.028;2023-02-08T11:54:34;27.88;;;11.50;;
67675;SDS011;54456;48.436;10.028;2023-02-08T11:56:16;29.73;;;11.45;;
67675;SDS011;54456;48.436;10.028;2023-02-08T11:59:23;23.27;;;10.30;;
67675;SDS011;54456;48.436;10.028;2023-02-08T12:00:58;28.08;;;11.73;;
67675;SDS011;54456;48.436;10.028;2023-02-08T12:02:31;29.95;;;12.75;;
67675;SDS011;54456;48.436;10.028;2023-02-08T12:04:06;23.48;;;9.60;;
67675;SDS011;54456;48.436;10.028;2023-02-08T12:07:54;25.05;;;9.50;;
67675;SDS011;54456;48.436;10.028;2023-02-08T12:09:15;34.63;;;12.43;;
67675;SDS011;54456;48.436;10.028;2023-02-08T12:10:52;34.22;;;13.30;;
67675;SDS011;54456;48.436;10.028;2023-02-08T12:19:17;29.98;;;10.80;;
67675;SDS011;54456;48.436;10.028;2023-02-08T12:20:55;30.48;;;12.77;;
67675;SDS011;54456;48.436;10.028;2023-02-08T12:22:28;31.05;;;13.25;;
67675;SDS011;54456;48.436;10.028;2023-02-08T12:25:48;34.15;;;14.95;;
67675;SDS011;54456;48.436;10.028;2023-02-08T12:27:44;37.67;;;15.93;;
67675;SDS011;54456;48.436;10.028;2023-02-08T12:31:18;27.70;;;10.70;;
67675;SDS011;54456;48.436;10.028;2023-02-08T12:32:56;24.75;;;9.52;;
67675;SDS011;54456;48.436;10.028;2023-02-08T12:38:00;29.73;;;11.27;;
67675;SDS011;54456;48.436;10.028;2023-02-08T12:39:58;26.90;;;10.30;;
67675;SDS011;54456;48.436;10.028;2023-02-08T12:51:31;28.60;;;11.47;;
67675;SDS011;54456;48.436;10.028;2023-02-08T12:53:38;31.35;;;10.10;;
67675;SDS011;54456;48.436;10.028;2023-02-08T12:55:22;19.65;;;7.30;;
67675;SDS011;54456;48.436;10.028;2023-02-08T12:56:50;30.30;;;10.57;;
67675;SDS011;54456;48.436;10.028;2023-02-08T12:58:28;24.88;;;9.88;;
67675;SDS011;54456;48.436;10.028;2023-02-08T13:00:15;31.33;;;11.30;;
67675;SDS011;54456;48.436;10.028;2023-02-08T13:04:54;29.77;;;12.20;;
67675;SDS011;54456;48.436;10.028;2023-02-08T13:06:30;28.52;;;12.13;;
67675;SDS011;54456;48.436;10.028;2023-02-08T13:08:05;33.42;;;13.75;;
67675;SDS011;54456;48.436;10.028;2023-02-08T13:09:39;23.98;;;8.38;;
67675;SDS011;54456;48.436;10.028;2023-02-08T13:11:21;27.42;;;8.80;;
67675;SDS011;54456;48.436;10.028;2023-02-08T13:12:54;22.42;;;9.65;;
67675;SDS011;54456;48.436;10.028;2023-02-08T13:16:16;30.73;;;11.60;;
67675;SDS011;54456;48.436;10.028;2023-02-08T13:17:50;25.50;;;9.82;;
67675;SDS011;54456;48.436;10.028;2023-02-08T13:19:23;27.48;;;11.13;;
67675;SDS011;54456;48.436;10.028;2023-02-08T13:20:58;33.80;;;14.93;;
67675;SDS011;54456;48.436;10.028;2023-02-08T13:22:31;22.33;;;9.43;;
67675;SDS011;54456;48.436;10.028;2023-02-08T13:24:02;24.73;;;10.65;;
67675;SDS011;54456;48.436;10.028;2023-02-08T13:25:35;26.80;;;10.73;;
67675;SDS011;54456;48.436;10.028;2023-02-08T13:27:05;28.38;;;11.18;;
67675;SDS011;54456;48.436;10.028;2023-02-08T13:28:37;28.02;;;12.43;;
67675;SDS011;54456;48.436;10.028;2023-02-08T13:30:15;35.88;;;14.20;;
67675;SDS011;54456;48.436;10.028;2023-02-08T13:31:47;21.27;;;8.63;;
67675;SDS011;54456;48.436;10.028;2023-02-08T13:33:22;32.67;;;11.57;;
67675;SDS011;54456;48.436;10.028;2023-02-08T13:34:59;30.38;;;12.68;;
67675;SDS011;54456;48.436;10.028;2023-02-08T13:36:41;36.00;;;13.60;;
67675;SDS011;54456;48.436;10.028;2023-02-08T13:38:26;29.58;;;10.50;;
67675;SDS011;54456;48.436;10.028;2023-02-08T13:39:58;32.30;;;12.98;;
67675;SDS011;54456;48.436;10.028;2023-02-08T13:41:29;25.27;;;11.35;;
67675;SDS011;54456;48.436;10.028;2023-02-08T13:44:39;25.87;;;9.80;;
67675;SDS011;54456;48.436;10.028;2023-02-08T13:46:09;29.80;;;11.98;;
67675;SDS011;54456;48.436;10.028;2023-02-08T13:47:44;31.77;;;12.88;;
67675;SDS011;54456;48.436;10.028;2023-02-08T13:51:08;25.88;;;9.73;;
67675;SDS011;54456;48.436;10.028;2023-02-08T13:52:56;27.70;;;12.20;;